Time;durP1;ratioP1;P1;durP2;ratioP2;P2;SDS_P1;SDS_P2;PMS_P1;PMS_P2;Temp;Humidity;BMP_temperature;BMP_pressure;BME280_temperature;BME280_humidity;BME280_pressure;Samples;Min_cycle;Max_cycle;Signal;HPM_P1;HPM_P2
2023/03/18 00:02:08;;;;;;;8.07;4.47;;;12.00;99.90;;;;;;5027079;28;20053;-75
2023/03/18 00:04:34;;;;;;;8.05;4.65;;;12.00;99.90;;;;;;5020635;28;20068;-75
2023/03/18 00:06:59;;;;;;;10.68;4.45;;;12.00;99.90;;;;;;5020103;28;20472;-75
2023/03/18 00:09:26;;;;;;;10.32;4.68;;;12.00;99.90;;;;;;5020963;28;20132;-76
2023/03/18 00:11:52;;;;;;;13.50;4.50;;;12.00;99.90;;;;;;5020617;28;20399;-75
2023/03/18 00:14:19;;;;;;;9.88;4.55;;;12.00;99.90;;;;;;5022485;28;20041;-75
2023/03/18 00:16:45;;;;;;;10.30;4.73;;;12.00;99.90;;;;;;5022916;28;20033;-75
2023/03/18 00:19:11;;;;;;;8.75;4.90;;;12.00;99.90;;;;;;5021165;28;20488;-75
2023/03/18 00:21:37;;;;;;;9.82;4.55;;;12.00;99.90;;;;;;5021884;28;20540;-75
2023/03/18 00:24:03;;;;;;;8.95;4.03;;;12.00;99.90;;;;;;5027660;28;20124;-75
2023/03/18 00:26:29;;;;;;;9.13;4.60;;;12.00;99.90;;;;;;5017902;28;20041;-75
2023/03/18 00:28:56;;;;;;;10.20;4.72;;;12.00;99.90;;;;;;5022293;28;20392;-75
2023/03/18 00:31:22;;;;;;;9.15;4.57;;;12.00;99.90;;;;;;5019211;28;20116;-75
2023/03/18 00:33:49;;;;;;;12.00;4.95;;;11.90;99.90;;;;;;5021454;28;20540;-75
2023/03/18 00:36:15;;;;;;;9.50;4.80;;;12.00;99.90;;;;;;5027928;28;20107;-75
2023/03/18 00:38:43;;;;;;;10.60;4.80;;;11.90;99.90;;;;;;5024158;28;20049;-75
2023/03/18 00:41:14;;;;;;;8.20;4.60;;;11.90;99.90;;;;;;5026738;28;20049;-75
2023/03/18 00:44:00;;;;;;;8.70;4.55;;;11.90;99.90;;;;;;5019562;28;20033;-75
2023/03/18 00:46:35;;;;;;;8.40;4.95;;;11.90;99.90;;;;;;5025795;28;20060;-75
2023/03/18 00:49:03;;;;;;;9.70;5.00;;;11.90;99.90;;;;;;5017961;28;20038;-75
2023/03/18 00:51:32;;;;;;;8.75;4.65;;;11.80;99.90;;;;;;5024551;28;20065;-75
2023/03/18 00:54:00;;;;;;;7.97;4.95;;;11.90;99.90;;;;;;5021087;28;20072;-75
2023/03/18 00:56:29;;;;;;;9.38;4.75;;;11.90;99.90;;;;;;5026025;28;20045;-76
2023/03/18 00:58:56;;;;;;;10.40;5.32;;;11.80;99.90;;;;;;5023650;28;20033;-75
2023/03/18 01:01:23;;;;;;;9.60;5.07;;;11.80;99.90;;;;;;5021712;28;20073;-75
2023/03/18 01:03:49;;;;;;;7.88;4.68;;;11.80;99.90;;;;;;5026060;28;20053;-75
2023/03/18 01:06:21;;;;;;;8.77;4.85;;;11.80;99.90;;;;;;5019456;28;20038;-75
2023/03/18 01:08:48;;;;;;;8.13;4.70;;;11.80;99.90;;;;;;5023890;28;20052;-75
2023/03/18 01:11:14;;;;;;;13.15;5.03;;;11.80;99.90;;;;;;5027768;28;20420;-75
2023/03/18 01:13:40;;;;;;;8.32;5.07;;;11.70;99.90;;;;;;5026536;28;20045;-74
2023/03/18 01:16:08;;;;;;;9.13;4.97;;;11.70;99.90;;;;;;5029647;28;20440;-75
2023/03/18 01:18:35;;;;;;;8.45;4.90;;;11.70;99.90;;;;;;5025128;28;20128;-75
2023/03/18 01:21:01;;;;;;;9.60;5.47;;;11.70;99.90;;;;;;5024209;28;20041;-75
2023/03/18 01:23:29;;;;;;;8.88;5.13;;;11.70;99.90;;;;;;5023603;28;20128;-75
2023/03/18 01:25:58;;;;;;;9.25;5.05;;;11.70;99.90;;;;;;5023770;28;20500;-75
2023/03/18 01:28:23;;;;;;;9.82;5.30;;;11.70;99.90;;;;;;5029232;28;20041;-75
2023/03/18 01:30:49;;;;;;;11.02;5.20;;;11.70;99.90;;;;;;5030961;28;20033;-75
2023/03/18 01:33:15;;;;;;;10.20;5.50;;;11.60;99.90;;;;;;5027141;28;20076;-75
2023/03/18 01:35:41;;;;;;;10.63;5.10;;;11.60;99.90;;;;;;5019324;28;20132;-75
2023/03/18 01:38:07;;;;;;;9.55;4.90;;;11.60;99.90;;;;;;5029656;28;20582;-75
2023/03/18 01:40:35;;;;;;;11.20;5.25;;;11.60;99.90;;;;;;5030605;28;20527;-75
2023/03/18 01:43:22;;;;;;;11.73;5.30;;;11.60;99.90;;;;;;5027762;28;20045;-75
2023/03/18 01:45:55;;;;;;;9.82;5.10;;;11.60;99.90;;;;;;5025218;28;20045;-75
2023/03/18 01:48:24;;;;;;;10.30;5.10;;;11.60;99.90;;;;;;5026534;28;20176;-74
2023/03/18 01:50:59;;;;;;;11.80;5.72;;;11.60;99.90;;;;;;5027687;28;20052;-75
2023/03/18 01:53:30;;;;;;;10.10;5.03;;;11.50;99.90;;;;;;5025655;28;20037;-75
2023/03/18 01:55:56;;;;;;;10.55;5.45;;;11.50;99.90;;;;;;5030179;28;20041;-75
2023/03/18 01:58:33;;;;;;;8.52;5.43;;;11.50;99.90;;;;;;5025894;28;20121;-75
2023/03/18 02:01:08;;;;;;;10.15;5.53;;;11.50;99.90;;;;;;5023545;28;20060;-75
2023/03/18 02:03:35;;;;;;;11.02;5.30;;;11.40;99.90;;;;;;5029262;28;20040;-75
2023/03/18 02:06:02;;;;;;;14.05;5.75;;;11.40;99.90;;;;;;5028255;28;20053;-75
2023/03/18 02:08:28;;;;;;;9.63;5.93;;;11.30;99.90;;;;;;5026253;28;20053;-75
2023/03/18 02:10:54;;;;;;;11.35;5.65;;;11.40;99.90;;;;;;5023995;28;20037;-75
2023/03/18 02:13:20;;;;;;;9.70;5.70;;;11.30;99.90;;;;;;5030608;28;20041;-75
2023/03/18 02:16:17;;;;;;;8.82;5.80;;;11.30;99.90;;;;;;5025342;28;20041;-75
2023/03/18 02:18:49;;;;;;;10.23;5.80;;;11.20;99.90;;;;;;5021810;28;20049;-75
2023/03/18 02:21:29;;;;;;;10.05;6.00;;;11.20;99.90;;;;;;5020339;28;20092;-75
2023/03/18 02:24:18;;;;;;;10.50;6.00;;;11.20;99.90;;;;;;5021409;28;20107;-75
2023/03/18 02:27:03;;;;;;;10.95;6.00;;;11.10;99.90;;;;;;5023044;28;20057;-75
2023/03/18 02:29:33;;;;;;;10.43;5.68;;;11.10;99.90;;;;;;5024329;28;20046;-75
2023/03/18 02:32:05;;;;;;;8.75;6.10;;;11.00;99.90;;;;;;5021643;28;20045;-75
2023/03/18 02:34:32;;;;;;;11.27;6.35;;;10.90;99.90;;;;;;5024981;28;20058;-75
2023/03/18 02:36:58;;;;;;;10.63;6.00;;;10.80;99.90;;;;;;5021649;28;20048;-75
2023/03/18 02:39:23;;;;;;;9.55;6.15;;;10.90;99.90;;;;;;5027983;28;20466;-75
2023/03/18 02:41:49;;;;;;;9.75;5.80;;;10.80;99.90;;;;;;5022455;28;20516;-75
2023/03/18 02:44:15;;;;;;;11.23;6.25;;;10.70;99.90;;;;;;5027089;28;20487;-75
2023/03/18 02:46:47;;;;;;;12.80;6.47;;;10.70;99.90;;;;;;5023708;28;20038;-75
2023/03/18 02:49:14;;;;;;;11.40;6.28;;;10.70;99.90;;;;;;5031175;28;20049;-75
2023/03/18 02:51:40;;;;;;;12.27;6.40;;;10.70;99.90;;;;;;5024163;28;20030;-75
2023/03/18 02:54:09;;;;;;;9.65;6.28;;;10.60;99.90;;;;;;5022381;28;20034;-75
2023/03/18 02:56:38;;;;;;;11.93;6.68;;;10.60;99.90;;;;;;5022611;28;20041;-75
2023/03/18 02:59:04;;;;;;;11.45;6.57;;;10.60;99.90;;;;;;5026692;28;20041;-75
2023/03/18 03:01:31;;;;;;;12.55;6.40;;;10.60;99.90;;;;;;5028799;28;20053;-75
2023/03/18 03:03:57;;;;;;;11.77;6.60;;;10.50;99.90;;;;;;5027066;28;20056;-75
2023/03/18 03:06:24;;;;;;;12.20;6.60;;;10.50;99.90;;;;;;5022260;28;21809;-75
2023/03/18 03:08:50;;;;;;;13.13;6.90;;;10.50;99.90;;;;;;5026458;28;20052;-75
2023/03/18 03:11:17;;;;;;;10.93;6.72;;;10.50;99.90;;;;;;5027845;28;20076;-75
2023/03/18 03:13:44;;;;;;;10.70;7.10;;;10.50;99.90;;;;;;5028219;28;20499;-75
2023/03/18 03:16:12;;;;;;;9.82;6.88;;;10.50;99.90;;;;;;5024145;28;20053;-75
2023/03/18 03:18:39;;;;;;;10.65;6.72;;;10.50;99.90;;;;;;5024756;28;20046;-75
2023/03/18 03:21:05;;;;;;;10.73;7.17;;;10.50;99.90;;;;;;5027837;28;20492;-75
2023/03/18 03:23:31;;;;;;;10.35;6.90;;;10.50;99.90;;;;;;5023452;28;20037;-75
2023/03/18 03:25:57;;;;;;;12.40;7.70;;;10.50;99.90;;;;;;5027288;28;20045;-75
2023/03/18 03:28:23;;;;;;;11.02;7.07;;;10.60;99.90;;;;;;5018868;28;20045;-75
2023/03/18 03:30:49;;;;;;;13.60;7.40;;;10.60;99.90;;;;;;5029323;28;20072;-75
2023/03/18 03:33:14;;;;;;;10.75;8.15;;;10.50;99.90;;;;;;5022709;28;20461;-75
2023/03/18 03:35:40;;;;;;;11.18;7.50;;;10.50;99.90;;;;;;5025209;28;20124;-75
2023/03/18 03:38:08;;;;;;;11.40;7.50;;;10.50;99.90;;;;;;5027640;28;20041;-75
2023/03/18 03:40:34;;;;;;;12.50;7.90;;;10.50;99.90;;;;;;5020730;28;20053;-75
2023/03/18 03:42:59;;;;;;;10.52;8.20;;;10.50;99.90;;;;;;5022876;28;20044;-75
2023/03/18 03:45:25;;;;;;;15.77;8.63;;;10.50;99.90;;;;;;5031206;28;20124;-75
2023/03/18 03:47:52;;;;;;;12.27;8.70;;;10.50;99.90;;;;;;5019983;28;20559;-75
2023/03/18 03:50:18;;;;;;;12.27;9.00;;;10.60;99.90;;;;;;5024161;28;20056;-75
2023/03/18 03:52:45;;;;;;;12.07;8.73;;;10.60;99.90;;;;;;5020699;28;20369;-75
2023/03/18 03:55:14;;;;;;;12.80;9.30;;;10.60;99.90;;;;;;5027334;28;20064;-75
2023/03/18 03:57:40;;;;;;;11.98;8.98;;;10.60;99.90;;;;;;5024474;28;20037;-75
2023/03/18 04:00:12;;;;;;;11.25;8.80;;;10.60;99.90;;;;;;5022320;28;20041;-75
2023/03/18 04:02:42;;;;;;;14.52;9.52;;;10.60;99.90;;;;;;5022154;28;20409;-75
2023/03/18 04:05:09;;;;;;;13.05;9.25;;;10.60;99.90;;;;;;5028226;28;20042;-75
2023/03/18 04:07:35;;;;;;;17.17;9.18;;;10.60;99.90;;;;;;5030942;28;20599;-75
2023/03/18 04:10:01;;;;;;;14.63;10.00;;;10.60;99.90;;;;;;5029340;28;20128;-75
2023/03/18 04:12:28;;;;;;;13.70;9.57;;;10.50;99.90;;;;;;5028006;28;20067;-75
2023/03/18 04:14:54;;;;;;;16.45;10.48;;;10.50;99.90;;;;;;5030307;28;20120;-75
2023/03/18 04:17:19;;;;;;;18.67;11.13;;;10.50;99.90;;;;;;5028101;28;20442;-75
2023/03/18 04:19:45;;;;;;;15.00;10.23;;;10.50;99.90;;;;;;5020588;28;20053;-75
2023/03/18 04:22:11;;;;;;;15.70;10.73;;;10.50;99.90;;;;;;5027364;28;20046;-75
2023/03/18 04:24:37;;;;;;;13.10;10.75;;;10.50;99.90;;;;;;5023109;28;20388;-75
2023/03/18 04:27:03;;;;;;;15.20;10.90;;;10.40;99.90;;;;;;5028847;28;20045;-75
2023/03/18 04:29:28;;;;;;;12.27;10.63;;;10.40;99.90;;;;;;5018036;28;20050;-75
2023/03/18 04:31:55;;;;;;;13.40;10.63;;;10.40;99.90;;;;;;5023228;28;20052;-75
2023/03/18 04:34:21;;;;;;;14.65;11.13;;;10.40;99.90;;;;;;5023684;28;20060;-75
2023/03/18 04:36:47;;;;;;;16.35;11.40;;;10.40;99.90;;;;;;5023967;28;20087;-75
2023/03/18 04:39:13;;;;;;;14.23;11.13;;;10.40;99.90;;;;;;5025314;28;20140;-75
2023/03/18 04:41:39;;;;;;;18.08;11.38;;;10.40;99.90;;;;;;5025309;28;20136;-75
2023/03/18 04:44:05;;;;;;;16.75;12.60;;;10.40;99.90;;;;;;5022631;28;20049;-75
2023/03/18 04:46:31;;;;;;;15.05;12.02;;;10.40;99.90;;;;;;5019374;28;20045;-75
2023/03/18 04:48:57;;;;;;;16.35;11.68;;;10.40;99.90;;;;;;5023980;28;20103;-75
2023/03/18 04:51:24;;;;;;;17.20;11.95;;;10.40;99.90;;;;;;5020466;28;20045;-75
2023/03/18 04:53:50;;;;;;;16.25;12.13;;;10.40;99.90;;;;;;5028483;28;20489;-75
2023/03/18 04:56:16;;;;;;;15.07;11.43;;;10.30;99.90;;;;;;5032649;28;20397;-75
2023/03/18 04:58:42;;;;;;;16.17;12.25;;;10.30;99.90;;;;;;5028111;28;20037;-75
2023/03/18 05:01:11;;;;;;;13.38;11.88;;;10.30;99.90;;;;;;5029733;28;20076;-75
2023/03/18 05:03:41;;;;;;;20.42;12.40;;;10.30;99.90;;;;;;5026311;28;20174;-75
2023/03/18 05:06:08;;;;;;;15.13;11.75;;;10.30;99.90;;;;;;5022591;28;20067;-75
2023/03/18 05:08:34;;;;;;;18.17;12.95;;;10.30;99.90;;;;;;5023738;28;20050;-75
2023/03/18 05:11:00;;;;;;;16.23;13.00;;;10.30;99.90;;;;;;5023706;28;20886;-75
2023/03/18 05:13:27;;;;;;;13.93;12.10;;;10.30;99.90;;;;;;5023346;28;20442;-75
2023/03/18 05:15:52;;;;;;;18.35;12.13;;;10.20;99.90;;;;;;5024375;28;20404;-75
2023/03/18 05:18:19;;;;;;;16.33;12.25;;;10.20;99.90;;;;;;5025094;28;20030;-75
2023/03/18 05:20:44;;;;;;;17.05;12.82;;;10.20;99.90;;;;;;5024124;28;20262;-75
2023/03/18 05:23:10;;;;;;;18.35;13.60;;;10.20;99.90;;;;;;5029690;28;20490;-75
2023/03/18 05:25:37;;;;;;;18.17;13.63;;;10.20;99.90;;;;;;5023677;28;20052;-75
2023/03/18 05:28:03;;;;;;;18.47;14.50;;;10.20;99.90;;;;;;5027075;28;20084;-75
2023/03/18 05:30:28;;;;;;;18.05;14.43;;;10.20;99.90;;;;;;5024106;28;20045;-75
2023/03/18 05:32:54;;;;;;;18.98;14.43;;;10.20;99.90;;;;;;5030839;28;20045;-75
2023/03/18 05:35:20;;;;;;;18.35;14.10;;;10.20;99.90;;;;;;5027419;28;20800;-72
2023/03/18 05:37:46;;;;;;;16.83;14.48;;;10.20;99.90;;;;;;5022396;28;20488;-75
2023/03/18 05:40:13;;;;;;;22.30;14.20;;;10.20;99.90;;;;;;5023223;28;20125;-75
2023/03/18 05:42:42;;;;;;;17.30;13.63;;;10.20;99.90;;;;;;5032435;28;20045;-75
2023/03/18 05:45:08;;;;;;;17.63;14.05;;;10.20;99.90;;;;;;5024248;28;20057;-75
2023/03/18 05:47:35;;;;;;;17.35;14.30;;;10.20;99.90;;;;;;5021879;28;20268;-75
2023/03/18 05:50:02;;;;;;;21.80;14.48;;;10.20;99.90;;;;;;5027693;28;20049;-75
2023/03/18 05:52:28;;;;;;;18.35;14.75;;;10.20;99.90;;;;;;5025690;28;20187;-75
2023/03/18 05:54:54;;;;;;;17.67;14.18;;;10.20;99.90;;;;;;5027761;28;20542;-75
2023/03/18 05:57:20;;;;;;;17.35;13.98;;;10.20;99.90;;;;;;5030075;28;20037;-75
2023/03/18 05:59:45;;;;;;;17.40;14.10;;;10.30;99.90;;;;;;5027617;28;20091;-75
2023/03/18 06:02:11;;;;;;;17.38;13.68;;;10.30;99.90;;;;;;5023210;28;20049;-76
2023/03/18 06:04:39;;;;;;;15.98;14.13;;;10.30;99.90;;;;;;5028016;28;20049;-75
2023/03/18 06:07:05;;;;;;;20.45;15.68;;;10.30;99.90;;;;;;5026965;28;20053;-75
2023/03/18 06:09:32;;;;;;;20.48;16.80;;;10.30;99.90;;;;;;5027663;28;20392;-75
2023/03/18 06:11:58;;;;;;;25.30;19.33;;;10.30;99.90;;;;;;5029127;28;20045;-75
2023/03/18 06:14:28;;;;;;;24.75;17.95;;;10.30;99.90;;;;;;5031518;28;20048;-74
2023/03/18 06:16:55;;;;;;;22.58;17.25;;;10.30;99.90;;;;;;5022519;28;20046;-75
2023/03/18 06:19:21;;;;;;;25.90;21.88;;;10.40;99.90;;;;;;5022851;28;20134;-76
2023/03/18 06:21:47;;;;;;;19.67;16.80;;;10.40;99.90;;;;;;5022698;28;21285;-76
2023/03/18 06:24:15;;;;;;;23.17;17.98;;;10.40;99.90;;;;;;5030464;28;20124;-76
2023/03/18 06:26:42;;;;;;;21.23;16.23;;;10.40;99.90;;;;;;5022312;28;20037;-76
2023/03/18 06:29:09;;;;;;;19.33;15.93;;;10.40;99.90;;;;;;5022733;28;20149;-76
2023/03/18 06:31:36;;;;;;;17.67;15.20;;;10.40;99.90;;;;;;5022369;28;20485;-75
2023/03/18 06:34:03;;;;;;;23.92;15.98;;;10.50;99.90;;;;;;5021266;28;20084;-75
2023/03/18 06:36:29;;;;;;;19.33;15.30;;;10.50;99.90;;;;;;5018145;28;20149;-76
2023/03/18 06:38:55;;;;;;;21.88;15.55;;;10.50;99.90;;;;;;5029135;28;20403;-74
2023/03/18 06:41:21;;;;;;;20.73;15.93;;;10.50;99.90;;;;;;5020793;28;20292;-74
2023/03/18 06:43:49;;;;;;;19.60;15.35;;;10.50;99.90;;;;;;5026337;28;20409;-74
2023/03/18 06:46:16;;;;;;;21.33;16.25;;;10.50;99.90;;;;;;5024061;28;20457;-75
2023/03/18 06:48:41;;;;;;;20.60;17.70;;;10.50;99.90;;;;;;5027981;28;20115;-75
2023/03/18 06:51:07;;;;;;;25.60;22.63;;;10.50;99.90;;;;;;5028191;28;20041;-75
2023/03/18 06:53:35;;;;;;;38.58;33.03;;;10.60;99.90;;;;;;5030204;28;20037;-75
2023/03/18 06:56:02;;;;;;;23.25;20.02;;;10.60;99.90;;;;;;5027527;28;20046;-76
2023/03/18 06:58:31;;;;;;;22.95;18.88;;;10.60;99.90;;;;;;5030469;28;20065;-70
2023/03/18 07:00:57;;;;;;;25.00;18.13;;;10.60;99.90;;;;;;5028555;28;20069;-69
2023/03/18 07:03:24;;;;;;;23.25;17.98;;;10.60;99.90;;;;;;5030327;28;20482;-70
2023/03/18 07:05:51;;;;;;;22.58;18.50;;;10.70;99.90;;;;;;5023076;28;20148;-70
2023/03/18 07:08:17;;;;;;;21.10;18.53;;;10.70;99.90;;;;;;5024066;28;20041;-70
2023/03/18 07:10:42;;;;;;;24.15;18.90;;;10.70;99.90;;;;;;5024009;28;20107;-70
2023/03/18 07:13:09;;;;;;;26.42;20.45;;;10.70;99.90;;;;;;5025850;28;20029;-70
2023/03/18 07:15:37;;;;;;;26.67;20.23;;;10.70;99.90;;;;;;5029347;28;20366;-70
2023/03/18 07:18:03;;;;;;;26.52;21.17;;;10.70;99.90;;;;;;5026133;28;20044;-70
2023/03/18 07:20:29;;;;;;;23.70;20.40;;;10.70;99.90;;;;;;5022305;28;20041;-70
2023/03/18 07:22:55;;;;;;;26.27;21.85;;;10.70;99.90;;;;;;5020903;28;20042;-71
2023/03/18 07:25:21;;;;;;;25.73;20.17;;;10.80;99.90;;;;;;5026748;28;20264;-69
2023/03/18 07:27:47;;;;;;;31.05;22.45;;;10.70;99.90;;;;;;5026567;28;20636;-69
2023/03/18 07:30:13;;;;;;;28.02;20.35;;;10.80;99.90;;;;;;5029024;28;20091;-69
2023/03/18 07:32:39;;;;;;;27.65;20.98;;;10.80;99.90;;;;;;5026733;28;20052;-69
2023/03/18 07:35:05;;;;;;;27.73;21.80;;;10.80;99.90;;;;;;5021880;28;20049;-69
2023/03/18 07:37:32;;;;;;;26.60;22.53;;;10.80;99.90;;;;;;5022786;28;20053;-69
2023/03/18 07:39:58;;;;;;;30.67;23.13;;;10.80;99.90;;;;;;5024260;28;20311;-69
2023/03/18 07:42:23;;;;;;;29.85;22.42;;;10.80;99.90;;;;;;5027077;28;20029;-69
2023/03/18 07:44:49;;;;;;;27.42;23.42;;;10.90;99.90;;;;;;5027611;28;20460;-69
2023/03/18 07:47:15;;;;;;;30.73;24.75;;;10.80;99.90;;;;;;5026499;28;20046;-69
2023/03/18 07:49:41;;;;;;;28.23;23.85;;;10.90;99.90;;;;;;5029287;28;20071;-69
2023/03/18 07:52:07;;;;;;;31.00;25.17;;;10.90;99.90;;;;;;5022620;28;20135;-69
2023/03/18 07:54:34;;;;;;;30.70;24.13;;;10.90;99.90;;;;;;5026023;28;20037;-69
2023/03/18 07:57:00;;;;;;;33.83;25.65;;;10.90;99.90;;;;;;5026143;28;20041;-69
2023/03/18 07:59:26;;;;;;;28.90;25.15;;;10.90;99.90;;;;;;5028688;28;20041;-69
2023/03/18 08:01:51;;;;;;;30.15;24.90;;;10.90;99.90;;;;;;5020104;28;20099;-69
2023/03/18 08:04:18;;;;;;;32.15;26.33;;;10.90;99.90;;;;;;5021411;28;20142;-69
2023/03/18 08:06:43;;;;;;;39.38;28.95;;;11.00;99.90;;;;;;5022971;28;20117;-69
2023/03/18 08:09:09;;;;;;;34.15;27.98;;;11.00;99.90;;;;;;5017344;28;20560;-69
2023/03/18 08:11:35;;;;;;;36.08;28.65;;;11.10;99.90;;;;;;5026102;28;20052;-69
2023/03/18 08:14:01;;;;;;;32.45;27.70;;;11.10;99.90;;;;;;5022919;28;21839;-69
2023/03/18 08:16:27;;;;;;;36.97;28.42;;;11.10;99.90;;;;;;5026396;28;20037;-69
2023/03/18 08:18:53;;;;;;;32.85;26.95;;;11.10;99.90;;;;;;5026037;28;20049;-70
2023/03/18 08:21:18;;;;;;;35.67;29.73;;;11.20;99.90;;;;;;5024993;28;20049;-69
2023/03/18 08:23:44;;;;;;;35.03;27.50;;;11.10;99.90;;;;;;5023996;28;20040;-70
2023/03/18 08:26:10;;;;;;;35.63;29.48;;;11.20;99.90;;;;;;5024424;28;20052;-68
2023/03/18 08:28:37;;;;;;;35.83;29.05;;;11.30;99.90;;;;;;5026141;28;20084;-68
2023/03/18 08:31:04;;;;;;;37.00;28.37;;;11.30;99.90;;;;;;5022468;28;20029;-70
2023/03/18 08:33:30;;;;;;;33.65;29.60;;;11.30;99.90;;;;;;5017209;28;20120;-70
2023/03/18 08:35:57;;;;;;;36.58;29.80;;;11.40;99.90;;;;;;5024912;28;20037;-70
2023/03/18 08:38:23;;;;;;;37.20;29.08;;;11.40;99.90;;;;;;5023445;28;20591;-70
2023/03/18 08:40:50;;;;;;;32.88;28.73;;;11.40;99.90;;;;;;5021712;28;20409;-71
2023/03/18 08:43:16;;;;;;;35.63;29.70;;;11.50;99.90;;;;;;5028096;28;20393;-69
2023/03/18 08:45:42;;;;;;;34.55;30.45;;;11.60;99.90;;;;;;5029689;28;20057;-73
2023/03/18 08:48:08;;;;;;;40.25;29.52;;;11.60;99.90;;;;;;5029032;28;20048;-72
2023/03/18 08:50:35;;;;;;;35.05;30.15;;;11.70;99.90;;;;;;5026842;28;20063;-71
2023/03/18 08:53:02;;;;;;;36.58;30.90;;;11.80;99.90;;;;;;5024030;28;20034;-68
2023/03/18 08:55:33;;;;;;;39.28;30.30;;;11.80;99.90;;;;;;5027159;28;20358;-70
2023/03/18 08:57:59;;;;;;;34.60;28.70;;;12.00;99.90;;;;;;5026665;28;20042;-68
2023/03/18 09:00:26;;;;;;;35.03;28.65;;;12.10;99.90;;;;;;5027816;28;20479;-70
2023/03/18 09:02:52;;;;;;;34.22;29.55;;;12.30;99.90;;;;;;5027308;28;20412;-71
2023/03/18 09:05:19;;;;;;;36.20;28.95;;;12.30;99.90;;;;;;5029831;28;20041;-71
2023/03/18 09:07:45;;;;;;;37.50;29.25;;;12.40;99.90;;;;;;5026646;28;20084;-68
2023/03/18 09:10:13;;;;;;;31.65;28.13;;;12.40;99.90;;;;;;5025061;28;20081;-68
2023/03/18 09:12:46;;;;;;;34.90;29.35;;;12.50;99.90;;;;;;5022150;28;20045;-70
2023/03/18 09:15:17;;;;;;;33.20;27.98;;;12.50;99.90;;;;;;5025944;28;20092;-67
2023/03/18 09:17:43;;;;;;;33.72;29.10;;;12.50;99.90;;;;;;5020903;28;20069;-70
2023/03/18 09:20:13;;;;;;;30.98;26.48;;;12.60;99.90;;;;;;5018198;28;20127;-70
2023/03/18 09:22:40;;;;;;;31.60;26.83;;;12.60;99.90;;;;;;5025260;28;20045;-71
2023/03/18 09:25:07;;;;;;;30.17;26.92;;;12.60;99.90;;;;;;5022547;28;20053;-70
2023/03/18 09:27:33;;;;;;;30.25;26.95;;;12.70;99.90;;;;;;5029603;28;20092;-69
2023/03/18 09:29:58;;;;;;;31.67;27.13;;;12.80;99.90;;;;;;5029195;28;20866;-69
2023/03/18 09:32:24;;;;;;;31.50;26.08;;;12.90;99.90;;;;;;5026259;28;20045;-72
2023/03/18 09:34:50;;;;;;;29.77;26.15;;;12.90;99.90;;;;;;5026185;28;20136;-77
2023/03/18 09:37:17;;;;;;;29.17;25.13;;;13.00;99.90;;;;;;5023816;28;20612;-72
2023/03/18 09:39:44;;;;;;;25.02;22.35;;;13.20;99.90;;;;;;5027312;28;20053;-72
2023/03/18 09:42:54;;;;;;;27.02;23.30;;;13.30;99.90;;;;;;5031974;28;20128;-72
2023/03/18 09:45:43;;;;;;;28.48;25.50;;;13.30;99.90;;;;;;5027834;28;20053;-72
2023/03/18 09:48:38;;;;;;;27.15;23.17;;;13.50;99.90;;;;;;5027266;28;20118;-72
2023/03/18 09:51:40;;;;;;;25.30;20.90;;;13.60;99.90;;;;;;5014570;28;20038;-70
2023/03/18 09:54:19;;;;;;;24.25;21.38;;;13.70;99.90;;;;;;5017793;28;20061;-69
2023/03/18 09:56:44;;;;;;;23.60;20.98;;;13.80;99.90;;;;;;5025287;28;20041;-70
2023/03/18 09:59:36;;;;;;;25.70;20.67;;;13.80;99.90;;;;;;5023847;28;20142;-71
2023/03/18 10:02:13;;;;;;;23.40;20.88;;;13.90;99.90;;;;;;5029669;28;20380;-71
2023/03/18 10:04:43;;;;;;;20.00;17.73;;;13.90;99.90;;;;;;5014208;28;20042;-72
2023/03/18 10:07:21;;;;;;;20.58;17.42;;;13.90;99.90;;;;;;5022169;28;20056;-70
2023/03/18 10:10:06;;;;;;;19.90;16.77;;;14.00;99.90;;;;;;5022207;28;20073;-70
2023/03/18 10:12:41;;;;;;;21.58;18.70;;;14.00;99.90;;;;;;5029209;28;20057;-70
2023/03/18 10:15:31;;;;;;;21.10;17.60;;;14.00;99.90;;;;;;5029767;28;20057;-70
2023/03/18 10:18:09;;;;;;;21.30;17.15;;;14.00;99.90;;;;;;5025188;28;20477;-70
2023/03/18 10:21:05;;;;;;;19.23;15.55;;;13.90;99.90;;;;;;5027790;28;20042;-69
2023/03/18 10:24:39;;;;;;;16.17;13.85;;;13.90;99.90;;;;;;5024832;28;20685;-70
2023/03/18 10:27:18;;;;;;;14.98;13.38;;;13.90;99.90;;;;;;4888958;29;20129;-70
2023/03/18 10:30:03;;;;;;;17.13;14.15;;;13.90;99.90;;;;;;4946393;28;20051;-70
2023/03/18 10:32:37;;;;;;;17.60;15.05;;;14.00;99.90;;;;;;5001422;28;20412;-70
2023/03/18 10:35:32;;;;;;;15.95;13.98;;;14.00;99.90;;;;;;5019280;28;20073;-70
2023/03/18 10:38:03;;;;;;;17.20;14.02;;;14.00;99.90;;;;;;5019049;28;20124;-70
2023/03/18 10:40:35;;;;;;;16.02;14.30;;;13.90;99.90;;;;;;5025405;28;20084;-70
2023/03/18 10:43:03;;;;;;;18.65;14.95;;;13.90;99.90;;;;;;5029239;28;20037;-70
2023/03/18 10:45:32;;;;;;;15.00;13.43;;;13.90;99.90;;;;;;5020745;28;20049;-70
2023/03/18 10:48:23;;;;;;;16.27;14.57;;;14.00;99.90;;;;;;5026104;28;20049;-71
2023/03/18 10:51:27;;;;;;;19.05;15.45;;;14.00;99.90;;;;;;5029031;28;20377;-70
2023/03/18 10:54:01;;;;;;;17.27;14.30;;;14.10;99.90;;;;;;5013682;28;20041;-70
2023/03/18 10:56:27;;;;;;;15.80;14.20;;;14.20;99.90;;;;;;5020391;28;20033;-70
2023/03/18 10:58:53;;;;;;;17.58;14.60;;;14.20;99.90;;;;;;5024451;28;20503;-70
2023/03/18 11:01:21;;;;;;;14.70;13.20;;;14.30;99.90;;;;;;5018658;28;20452;-71
2023/03/18 11:04:05;;;;;;;17.92;15.63;;;14.40;99.90;;;;;;5022962;28;20096;-71
2023/03/18 11:06:48;;;;;;;20.63;15.70;;;14.50;99.90;;;;;;5021040;28;20073;-70
2023/03/18 11:09:27;;;;;;;19.75;15.00;;;14.60;99.90;;;;;;5028368;28;20132;-70
2023/03/18 11:12:01;;;;;;;18.30;15.50;;;14.70;99.90;;;;;;5025615;28;20081;-70
2023/03/18 11:14:29;;;;;;;17.50;15.70;;;14.70;99.90;;;;;;5029717;28;20041;-70
2023/03/18 11:17:01;;;;;;;17.77;15.82;;;14.60;99.90;;;;;;5028741;28;20128;-71
2023/03/18 11:19:40;;;;;;;19.02;16.20;;;14.60;99.90;;;;;;5018654;28;20049;-69
2023/03/18 11:22:09;;;;;;;17.60;15.43;;;14.70;99.90;;;;;;5022318;28;20047;-70
2023/03/18 11:24:43;;;;;;;18.23;15.48;;;14.90;99.90;;;;;;5028582;28;20090;-70
2023/03/18 11:27:15;;;;;;;16.63;14.93;;;15.00;99.90;;;;;;5017124;28;20050;-72
2023/03/18 11:29:52;;;;;;;17.35;15.55;;;15.00;99.90;;;;;;5021426;28;20049;-72
2023/03/18 11:32:30;;;;;;;17.13;15.32;;;15.10;99.90;;;;;;5023385;28;20064;-70
2023/03/18 11:34:59;;;;;;;17.42;15.52;;;15.20;99.90;;;;;;5023527;28;20045;-71
2023/03/18 11:37:36;;;;;;;16.27;14.57;;;15.30;99.90;;;;;;5025585;28;20055;-71
2023/03/18 11:40:26;;;;;;;16.95;15.10;;;15.50;99.90;;;;;;5029203;28;20053;-71
2023/03/18 11:43:01;;;;;;;16.70;14.48;;;15.60;99.90;;;;;;5021816;28;20127;-71
2023/03/18 11:45:51;;;;;;;15.68;13.50;;;15.70;99.90;;;;;;5024452;28;20041;-71
2023/03/18 11:48:38;;;;;;;15.98;13.68;;;15.80;99.90;;;;;;5027856;28;20053;-71
2023/03/18 11:51:28;;;;;;;16.83;14.43;;;15.70;99.90;;;;;;5025103;28;20067;-71
2023/03/18 11:53:54;;;;;;;16.08;14.38;;;15.60;99.90;;;;;;5014693;28;20037;-71
2023/03/18 11:56:33;;;;;;;16.02;14.43;;;15.60;99.90;;;;;;5023914;28;20107;-71
2023/03/18 11:59:07;;;;;;;16.65;13.68;;;15.60;99.90;;;;;;5025990;28;20045;-71
2023/03/18 12:01:48;;;;;;;15.18;13.63;;;15.60;99.90;;;;;;5027956;28;20065;-71
2023/03/18 12:04:45;;;;;;;15.57;14.05;;;15.70;99.90;;;;;;5031015;28;20467;-71
2023/03/18 12:07:40;;;;;;;13.35;11.52;;;15.80;99.90;;;;;;5028832;28;20041;-71
2023/03/18 12:10:13;;;;;;;14.35;12.57;;;16.00;99.90;;;;;;5026756;28;20046;-71
2023/03/18 12:13:02;;;;;;;12.88;11.57;;;16.00;99.90;;;;;;5029025;28;20045;-71
2023/03/18 12:16:00;;;;;;;14.27;12.82;;;16.20;99.90;;;;;;5024483;28;20050;-71
2023/03/18 12:18:41;;;;;;;14.95;13.48;;;16.30;99.90;;;;;;5023658;28;20061;-71
2023/03/18 12:21:35;;;;;;;15.10;13.65;;;16.30;99.90;;;;;;5025044;28;20568;-71
2023/03/18 12:24:06;;;;;;;15.75;14.10;;;16.30;99.90;;;;;;5027514;28;20073;-71
2023/03/18 12:26:58;;;;;;;16.02;14.32;;;16.30;99.90;;;;;;5020904;28;20048;-71
2023/03/18 12:30:01;;;;;;;17.33;14.30;;;16.30;99.90;;;;;;5022214;28;20038;-71
2023/03/18 12:32:26;;;;;;;15.60;14.00;;;16.20;99.90;;;;;;5028096;28;20061;-71
2023/03/18 12:35:20;;;;;;;12.77;11.48;;;16.20;99.90;;;;;;5026281;28;20426;-71
2023/03/18 12:38:18;;;;;;;14.50;13.00;;;16.20;99.90;;;;;;5028851;28;20060;-71
2023/03/18 12:40:56;;;;;;;14.00;11.30;;;16.10;99.90;;;;;;5019188;28;20057;-71
2023/03/18 12:43:33;;;;;;;14.63;12.43;;;16.10;99.90;;;;;;5018878;28;20099;-71
2023/03/18 12:46:03;;;;;;;;;;;16.10;99.90;;;;;;5026022;28;20121;-71
2023/03/18 12:48:33;;;;;;;11.52;9.60;;;16.20;99.90;;;;;;5020437;28;20648;-71